Terminal Aerodrome Forecast
Issued by NWS Nashville, TN

Home | Current Version | Previous Version | Text Only | Print | Product List | Glossary On
Versions: 1 2 3 4 5 6 7 8 9 10 11 12 13 14 15 16
000
FTUS44 KOHX 261736
TAFBNA
TAF
KBNA 261736Z 2618/2718 20010KT P6SM VCSH BKN035
      TEMPO 2620/2622 5SM -TSRA BKN023CB
     FM262200 14007KT P6SM VCTS BKN023CB
     FM270000 18004KT P6SM BKN250=

USA.gov is the U.S. government's official web portal to all federal, state and local government web resources and services.